sensor_id;sensor_type;location;lat;lon;timestamp;P1;durP1;ratioP1;P2;durP2;ratioP2
173;SDS011;75;48.784;9.364;2023-05-17T00:02:25;13.17;;;6.50;;
173;SDS011;75;48.784;9.364;2023-05-17T00:04:51;8.20;;;5.50;;
173;SDS011;75;48.784;9.364;2023-05-17T00:07:17;13.33;;;6.63;;
173;SDS011;75;48.784;9.364;2023-05-17T00:09:43;10.07;;;6.20;;
173;SDS011;75;48.784;9.364;2023-05-17T00:12:09;12.37;;;6.50;;
173;SDS011;75;48.784;9.364;2023-05-17T00:14:35;11.23;;;6.40;;
173;SDS011;75;48.784;9.364;2023-05-17T00:17:01;11.57;;;7.50;;
173;SDS011;75;48.784;9.364;2023-05-17T00:19:27;15.07;;;8.10;;
173;SDS011;75;48.784;9.364;2023-05-17T00:21:53;16.90;;;9.63;;
173;SDS011;75;48.784;9.364;2023-05-17T00:24:19;12.00;;;7.40;;
173;SDS011;75;48.784;9.364;2023-05-17T00:26:45;12.87;;;7.43;;
173;SDS011;75;48.784;9.364;2023-05-17T00:29:11;9.87;;;7.23;;
173;SDS011;75;48.784;9.364;2023-05-17T00:31:36;11.50;;;7.50;;
173;SDS011;75;48.784;9.364;2023-05-17T00:34:02;13.50;;;7.60;;
173;SDS011;75;48.784;9.364;2023-05-17T00:36:28;10.13;;;7.57;;
173;SDS011;75;48.784;9.364;2023-05-17T00:38:54;11.57;;;8.27;;
173;SDS011;75;48.784;9.364;2023-05-17T00:41:20;13.80;;;8.30;;
173;SDS011;75;48.784;9.364;2023-05-17T00:43:46;12.27;;;7.40;;
173;SDS011;75;48.784;9.364;2023-05-17T00:46:12;17.20;;;9.57;;
173;SDS011;75;48.784;9.364;2023-05-17T00:48:39;13.10;;;9.23;;
173;SDS011;75;48.784;9.364;2023-05-17T00:51:05;10.50;;;7.67;;
173;SDS011;75;48.784;9.364;2023-05-17T00:53:31;13.80;;;7.13;;
173;SDS011;75;48.784;9.364;2023-05-17T00:55:58;12.30;;;8.13;;
173;SDS011;75;48.784;9.364;2023-05-17T00:58:24;13.83;;;8.00;;
173;SDS011;75;48.784;9.364;2023-05-17T01:00:50;15.37;;;7.63;;
173;SDS011;75;48.784;9.364;2023-05-17T01:03:16;16.00;;;7.50;;
173;SDS011;75;48.784;9.364;2023-05-17T01:05:42;12.40;;;6.90;;
173;SDS011;75;48.784;9.364;2023-05-17T01:08:09;10.53;;;6.60;;
173;SDS011;75;48.784;9.364;2023-05-17T01:10:41;10.90;;;6.63;;
173;SDS011;75;48.784;9.364;2023-05-17T01:13:14;9.17;;;6.43;;
173;SDS011;75;48.784;9.364;2023-05-17T01:15:47;10.50;;;5.80;;
173;SDS011;75;48.784;9.364;2023-05-17T01:20:42;10.20;;;5.97;;
173;SDS011;75;48.784;9.364;2023-05-17T01:25:44;9.50;;;6.10;;
173;SDS011;75;48.784;9.364;2023-05-17T01:28:15;11.67;;;6.77;;
173;SDS011;75;48.784;9.364;2023-05-17T01:30:43;10.27;;;5.70;;
173;SDS011;75;48.784;9.364;2023-05-17T01:33:09;9.70;;;5.97;;
173;SDS011;75;48.784;9.364;2023-05-17T01:35:35;14.03;;;6.00;;
173;SDS011;75;48.784;9.364;2023-05-17T01:38:01;9.73;;;6.40;;
173;SDS011;75;48.784;9.364;2023-05-17T01:40:27;9.63;;;5.90;;
173;SDS011;75;48.784;9.364;2023-05-17T01:43:03;10.83;;;5.90;;
173;SDS011;75;48.784;9.364;2023-05-17T01:45:37;9.17;;;5.73;;
173;SDS011;75;48.784;9.364;2023-05-17T01:48:15;12.67;;;5.90;;
173;SDS011;75;48.784;9.364;2023-05-17T01:50:46;7.50;;;5.47;;
173;SDS011;75;48.784;9.364;2023-05-17T01:55:53;8.30;;;5.50;;
173;SDS011;75;48.784;9.364;2023-05-17T01:58:21;10.80;;;6.00;;
173;SDS011;75;48.784;9.364;2023-05-17T02:00:51;8.13;;;5.87;;
173;SDS011;75;48.784;9.364;2023-05-17T02:03:17;9.37;;;5.57;;
173;SDS011;75;48.784;9.364;2023-05-17T02:05:44;9.63;;;5.80;;
173;SDS011;75;48.784;9.364;2023-05-17T02:08:10;10.60;;;5.80;;
173;SDS011;75;48.784;9.364;2023-05-17T02:10:36;10.63;;;5.50;;
173;SDS011;75;48.784;9.364;2023-05-17T02:13:02;9.43;;;5.93;;
173;SDS011;75;48.784;9.364;2023-05-17T02:15:28;11.03;;;5.20;;
173;SDS011;75;48.784;9.364;2023-05-17T02:17:54;9.43;;;5.47;;
173;SDS011;75;48.784;9.364;2023-05-17T02:20:20;9.13;;;6.00;;
173;SDS011;75;48.784;9.364;2023-05-17T02:22:46;10.40;;;5.67;;
173;SDS011;75;48.784;9.364;2023-05-17T02:25:12;9.60;;;5.90;;
173;SDS011;75;48.784;9.364;2023-05-17T02:27:38;9.53;;;6.10;;
173;SDS011;75;48.784;9.364;2023-05-17T02:30:04;7.77;;;5.90;;
173;SDS011;75;48.784;9.364;2023-05-17T02:32:30;11.87;;;5.70;;
173;SDS011;75;48.784;9.364;2023-05-17T02:34:56;9.20;;;5.73;;
173;SDS011;75;48.784;9.364;2023-05-17T02:37:22;8.90;;;5.67;;
173;SDS011;75;48.784;9.364;2023-05-17T02:39:48;12.63;;;5.83;;
173;SDS011;75;48.784;9.364;2023-05-17T02:42:14;7.30;;;5.23;;
173;SDS011;75;48.784;9.364;2023-05-17T02:44:40;8.73;;;5.40;;
173;SDS011;75;48.784;9.364;2023-05-17T02:47:06;11.10;;;5.80;;
173;SDS011;75;48.784;9.364;2023-05-17T02:49:32;7.27;;;5.67;;
173;SDS011;75;48.784;9.364;2023-05-17T02:51:58;8.40;;;5.50;;
173;SDS011;75;48.784;9.364;2023-05-17T02:54:24;9.37;;;5.80;;
173;SDS011;75;48.784;9.364;2023-05-17T02:56:50;9.67;;;6.07;;
173;SDS011;75;48.784;9.364;2023-05-17T02:59:16;10.20;;;5.73;;
173;SDS011;75;48.784;9.364;2023-05-17T03:01:42;8.60;;;5.90;;
173;SDS011;75;48.784;9.364;2023-05-17T03:04:08;10.20;;;5.97;;
173;SDS011;75;48.784;9.364;2023-05-17T03:06:36;10.80;;;5.60;;
173;SDS011;75;48.784;9.364;2023-05-17T03:09:02;8.50;;;5.80;;
173;SDS011;75;48.784;9.364;2023-05-17T03:11:28;11.03;;;6.10;;
173;SDS011;75;48.784;9.364;2023-05-17T03:13:54;9.67;;;6.43;;
173;SDS011;75;48.784;9.364;2023-05-17T03:16:20;8.70;;;6.20;;
173;SDS011;75;48.784;9.364;2023-05-17T03:18:46;10.80;;;6.83;;
173;SDS011;75;48.784;9.364;2023-05-17T03:21:12;8.67;;;5.30;;
173;SDS011;75;48.784;9.364;2023-05-17T03:23:38;12.80;;;6.83;;
173;SDS011;75;48.784;9.364;2023-05-17T03:26:03;7.87;;;6.20;;
173;SDS011;75;48.784;9.364;2023-05-17T03:28:29;9.43;;;6.50;;
173;SDS011;75;48.784;9.364;2023-05-17T03:30:55;10.70;;;6.57;;
173;SDS011;75;48.784;9.364;2023-05-17T03:33:21;12.77;;;6.87;;
173;SDS011;75;48.784;9.364;2023-05-17T03:35:47;15.80;;;6.37;;
173;SDS011;75;48.784;9.364;2023-05-17T03:38:13;9.90;;;6.80;;
173;SDS011;75;48.784;9.364;2023-05-17T03:40:39;10.73;;;6.33;;
173;SDS011;75;48.784;9.364;2023-05-17T03:43:05;11.50;;;7.13;;
173;SDS011;75;48.784;9.364;2023-05-17T03:45:31;8.83;;;6.67;;
173;SDS011;75;48.784;9.364;2023-05-17T03:47:57;11.17;;;6.40;;
173;SDS011;75;48.784;9.364;2023-05-17T03:50:23;14.77;;;6.77;;
173;SDS011;75;48.784;9.364;2023-05-17T03:52:49;9.67;;;6.87;;
173;SDS011;75;48.784;9.364;2023-05-17T03:55:15;10.00;;;6.80;;
173;SDS011;75;48.784;9.364;2023-05-17T03:57:41;7.90;;;6.23;;
173;SDS011;75;48.784;9.364;2023-05-17T04:00:07;13.33;;;6.50;;
173;SDS011;75;48.784;9.364;2023-05-17T04:02:35;9.37;;;6.50;;
173;SDS011;75;48.784;9.364;2023-05-17T04:05:01;7.63;;;5.83;;
173;SDS011;75;48.784;9.364;2023-05-17T04:07:27;14.60;;;5.90;;
173;SDS011;75;48.784;9.364;2023-05-17T04:09:54;8.53;;;5.17;;
173;SDS011;75;48.784;9.364;2023-05-17T04:12:23;9.23;;;5.43;;
173;SDS011;75;48.784;9.364;2023-05-17T04:14:49;8.10;;;5.50;;
173;SDS011;75;48.784;9.364;2023-05-17T04:17:15;7.50;;;5.10;;
173;SDS011;75;48.784;9.364;2023-05-17T04:19:41;8.97;;;5.37;;
173;SDS011;75;48.784;9.364;2023-05-17T04:22:07;9.93;;;5.10;;
173;SDS011;75;48.784;9.364;2023-05-17T04:24:33;8.40;;;4.57;;
173;SDS011;75;48.784;9.364;2023-05-17T04:26:59;7.50;;;4.70;;
173;SDS011;75;48.784;9.364;2023-05-17T04:29:25;10.10;;;4.33;;
173;SDS011;75;48.784;9.364;2023-05-17T04:31:51;5.90;;;3.90;;
173;SDS011;75;48.784;9.364;2023-05-17T04:34:16;8.43;;;4.90;;
173;SDS011;75;48.784;9.364;2023-05-17T04:36:42;5.90;;;4.40;;
173;SDS011;75;48.784;9.364;2023-05-17T04:39:08;7.07;;;4.20;;
173;SDS011;75;48.784;9.364;2023-05-17T04:41:34;6.13;;;4.53;;
173;SDS011;75;48.784;9.364;2023-05-17T04:44:00;6.13;;;4.10;;
173;SDS011;75;48.784;9.364;2023-05-17T04:46:26;6.07;;;4.30;;
173;SDS011;75;48.784;9.364;2023-05-17T04:48:52;8.17;;;3.93;;
173;SDS011;75;48.784;9.364;2023-05-17T04:51:20;7.13;;;4.00;;
173;SDS011;75;48.784;9.364;2023-05-17T04:53:46;8.43;;;3.70;;
173;SDS011;75;48.784;9.364;2023-05-17T04:56:12;7.93;;;4.23;;
173;SDS011;75;48.784;9.364;2023-05-17T04:58:38;6.60;;;3.57;;
173;SDS011;75;48.784;9.364;2023-05-17T05:01:04;5.63;;;3.73;;
173;SDS011;75;48.784;9.364;2023-05-17T05:03:30;7.73;;;3.60;;
173;SDS011;75;48.784;9.364;2023-05-17T05:05:56;6.30;;;3.40;;
173;SDS011;75;48.784;9.364;2023-05-17T05:08:22;7.83;;;4.07;;
173;SDS011;75;48.784;9.364;2023-05-17T05:10:48;8.77;;;3.83;;
173;SDS011;75;48.784;9.364;2023-05-17T05:13:15;12.57;;;4.10;;
173;SDS011;75;48.784;9.364;2023-05-17T05:15:41;8.03;;;4.03;;
173;SDS011;75;48.784;9.364;2023-05-17T05:18:07;8.50;;;4.13;;
173;SDS011;75;48.784;9.364;2023-05-17T05:20:33;12.00;;;4.57;;
173;SDS011;75;48.784;9.364;2023-05-17T05:22:59;10.90;;;4.17;;
173;SDS011;75;48.784;9.364;2023-05-17T05:25:27;6.20;;;4.20;;
173;SDS011;75;48.784;9.364;2023-05-17T05:27:53;12.43;;;4.63;;
173;SDS011;75;48.784;9.364;2023-05-17T05:30:19;9.03;;;4.83;;
173;SDS011;75;48.784;9.364;2023-05-17T05:32:48;9.70;;;4.10;;
173;SDS011;75;48.784;9.364;2023-05-17T05:35:14;7.67;;;4.23;;
173;SDS011;75;48.784;9.364;2023-05-17T05:37:41;8.10;;;3.90;;
173;SDS011;75;48.784;9.364;2023-05-17T05:40:07;9.97;;;4.43;;
173;SDS011;75;48.784;9.364;2023-05-17T05:42:34;9.53;;;4.20;;
173;SDS011;75;48.784;9.364;2023-05-17T05:45:00;12.67;;;5.10;;
173;SDS011;75;48.784;9.364;2023-05-17T05:47:26;8.53;;;4.50;;
173;SDS011;75;48.784;9.364;2023-05-17T05:49:52;8.50;;;4.80;;
173;SDS011;75;48.784;9.364;2023-05-17T05:52:17;7.60;;;4.03;;
173;SDS011;75;48.784;9.364;2023-05-17T05:54:44;10.50;;;4.10;;
173;SDS011;75;48.784;9.364;2023-05-17T05:57:10;12.47;;;4.20;;
173;SDS011;75;48.784;9.364;2023-05-17T05:59:36;9.23;;;3.70;;
173;SDS011;75;48.784;9.364;2023-05-17T06:02:02;7.43;;;3.50;;
173;SDS011;75;48.784;9.364;2023-05-17T06:04:28;7.40;;;4.10;;
173;SDS011;75;48.784;9.364;2023-05-17T06:06:54;11.60;;;3.80;;
173;SDS011;75;48.784;9.364;2023-05-17T06:09:20;5.20;;;3.70;;
173;SDS011;75;48.784;9.364;2023-05-17T06:11:46;7.73;;;4.10;;
173;SDS011;75;48.784;9.364;2023-05-17T06:14:12;12.00;;;3.53;;
173;SDS011;75;48.784;9.364;2023-05-17T06:16:38;10.73;;;3.53;;
173;SDS011;75;48.784;9.364;2023-05-17T06:19:03;7.63;;;3.60;;
173;SDS011;75;48.784;9.364;2023-05-17T06:21:29;6.20;;;3.70;;
173;SDS011;75;48.784;9.364;2023-05-17T06:23:56;9.10;;;3.90;;
173;SDS011;75;48.784;9.364;2023-05-17T06:26:22;7.83;;;4.07;;
173;SDS011;75;48.784;9.364;2023-05-17T06:28:48;6.50;;;3.77;;
173;SDS011;75;48.784;9.364;2023-05-17T06:31:14;8.13;;;3.67;;
173;SDS011;75;48.784;9.364;2023-05-17T06:33:40;8.53;;;3.70;;
173;SDS011;75;48.784;9.364;2023-05-17T06:36:06;10.87;;;4.07;;
173;SDS011;75;48.784;9.364;2023-05-17T06:38:32;5.80;;;4.00;;
173;SDS011;75;48.784;9.364;2023-05-17T06:40:58;8.60;;;4.53;;
173;SDS011;75;48.784;9.364;2023-05-17T06:43:24;10.50;;;4.40;;
173;SDS011;75;48.784;9.364;2023-05-17T06:45:50;8.70;;;4.40;;
173;SDS011;75;48.784;9.364;2023-05-17T06:48:16;11.37;;;4.97;;
173;SDS011;75;48.784;9.364;2023-05-17T06:50:42;8.13;;;4.50;;
173;SDS011;75;48.784;9.364;2023-05-17T06:53:08;10.00;;;4.50;;
173;SDS011;75;48.784;9.364;2023-05-17T06:55:34;10.10;;;4.87;;
173;SDS011;75;48.784;9.364;2023-05-17T06:57:59;9.40;;;4.70;;
173;SDS011;75;48.784;9.364;2023-05-17T07:00:25;10.30;;;5.20;;
173;SDS011;75;48.784;9.364;2023-05-17T07:02:52;10.80;;;4.97;;
173;SDS011;75;48.784;9.364;2023-05-17T07:05:18;9.67;;;4.47;;
173;SDS011;75;48.784;9.364;2023-05-17T07:07:44;9.13;;;4.20;;
173;SDS011;75;48.784;9.364;2023-05-17T07:10:10;9.47;;;4.77;;
173;SDS011;75;48.784;9.364;2023-05-17T07:12:36;13.63;;;5.90;;
173;SDS011;75;48.784;9.364;2023-05-17T07:15:03;12.80;;;5.33;;
173;SDS011;75;48.784;9.364;2023-05-17T07:17:29;9.27;;;4.60;;
173;SDS011;75;48.784;9.364;2023-05-17T07:19:55;8.77;;;4.53;;
173;SDS011;75;48.784;9.364;2023-05-17T07:22:21;8.73;;;4.33;;
173;SDS011;75;48.784;9.364;2023-05-17T07:24:47;10.10;;;4.60;;
173;SDS011;75;48.784;9.364;2023-05-17T07:27:12;11.77;;;5.00;;
173;SDS011;75;48.784;9.364;2023-05-17T07:29:38;7.60;;;4.27;;
173;SDS011;75;48.784;9.364;2023-05-17T07:32:06;12.40;;;5.00;;
173;SDS011;75;48.784;9.364;2023-05-17T07:34:33;10.50;;;4.50;;
173;SDS011;75;48.784;9.364;2023-05-17T07:36:59;8.60;;;4.57;;
173;SDS011;75;48.784;9.364;2023-05-17T07:39:25;12.30;;;5.17;;
173;SDS011;75;48.784;9.364;2023-05-17T07:41:51;10.40;;;4.77;;
173;SDS011;75;48.784;9.364;2023-05-17T07:44:17;12.83;;;4.97;;
173;SDS011;75;48.784;9.364;2023-05-17T07:46:43;9.63;;;5.10;;
173;SDS011;75;48.784;9.364;2023-05-17T07:49:09;13.80;;;4.80;;
173;SDS011;75;48.784;9.364;2023-05-17T07:51:34;12.70;;;4.90;;
173;SDS011;75;48.784;9.364;2023-05-17T07:54:00;11.50;;;4.67;;
173;SDS011;75;48.784;9.364;2023-05-17T07:56:27;10.20;;;4.90;;
173;SDS011;75;48.784;9.364;2023-05-17T07:58:54;10.40;;;4.47;;
173;SDS011;75;48.784;9.364;2023-05-17T08:01:20;9.57;;;4.90;;
173;SDS011;75;48.784;9.364;2023-05-17T08:03:47;10.47;;;4.80;;
173;SDS011;75;48.784;9.364;2023-05-17T08:06:16;7.17;;;4.70;;
173;SDS011;75;48.784;9.364;2023-05-17T08:08:43;9.00;;;4.67;;
173;SDS011;75;48.784;9.364;2023-05-17T08:11:09;9.90;;;5.10;;
173;SDS011;75;48.784;9.364;2023-05-17T08:13:36;9.63;;;4.70;;
173;SDS011;75;48.784;9.364;2023-05-17T08:16:02;9.57;;;4.70;;
173;SDS011;75;48.784;9.364;2023-05-17T08:18:31;10.13;;;4.60;;
173;SDS011;75;48.784;9.364;2023-05-17T08:20:57;11.20;;;5.47;;
173;SDS011;75;48.784;9.364;2023-05-17T08:23:23;9.93;;;4.97;;
173;SDS011;75;48.784;9.364;2023-05-17T08:25:49;12.47;;;5.00;;
173;SDS011;75;48.784;9.364;2023-05-17T08:28:15;12.33;;;5.13;;
173;SDS011;75;48.784;9.364;2023-05-17T08:30:41;8.60;;;4.30;;
173;SDS011;75;48.784;9.364;2023-05-17T08:33:10;9.13;;;4.80;;
173;SDS011;75;48.784;9.364;2023-05-17T08:35:36;13.50;;;5.33;;
173;SDS011;75;48.784;9.364;2023-05-17T08:38:02;14.53;;;5.13;;
173;SDS011;75;48.784;9.364;2023-05-17T08:40:28;12.10;;;4.80;;
173;SDS011;75;48.784;9.364;2023-05-17T08:42:54;11.30;;;5.10;;
173;SDS011;75;48.784;9.364;2023-05-17T08:45:20;13.87;;;5.50;;
173;SDS011;75;48.784;9.364;2023-05-17T08:47:46;15.00;;;5.93;;
173;SDS011;75;48.784;9.364;2023-05-17T08:50:15;9.03;;;4.90;;
173;SDS011;75;48.784;9.364;2023-05-17T08:52:43;11.37;;;5.10;;
173;SDS011;75;48.784;9.364;2023-05-17T08:55:10;9.90;;;5.13;;
173;SDS011;75;48.784;9.364;2023-05-17T08:57:38;11.23;;;4.80;;
173;SDS011;75;48.784;9.364;2023-05-17T09:00:06;11.90;;;5.50;;
173;SDS011;75;48.784;9.364;2023-05-17T09:02:37;11.77;;;5.70;;
173;SDS011;75;48.784;9.364;2023-05-17T09:05:07;12.37;;;4.90;;
173;SDS011;75;48.784;9.364;2023-05-17T09:07:33;10.47;;;4.70;;
173;SDS011;75;48.784;9.364;2023-05-17T09:10:00;10.20;;;5.00;;
173;SDS011;75;48.784;9.364;2023-05-17T09:12:29;10.00;;;5.10;;
173;SDS011;75;48.784;9.364;2023-05-17T09:15:10;11.37;;;5.23;;
173;SDS011;75;48.784;9.364;2023-05-17T09:17:37;9.60;;;5.03;;
173;SDS011;75;48.784;9.364;2023-05-17T09:20:03;12.63;;;5.07;;
173;SDS011;75;48.784;9.364;2023-05-17T09:22:30;10.60;;;4.83;;
173;SDS011;75;48.784;9.364;2023-05-17T09:24:56;10.30;;;4.87;;
173;SDS011;75;48.784;9.364;2023-05-17T09:27:26;10.60;;;5.03;;
173;SDS011;75;48.784;9.364;2023-05-17T09:29:55;10.20;;;4.90;;
173;SDS011;75;48.784;9.364;2023-05-17T09:32:22;6.90;;;4.27;;
173;SDS011;75;48.784;9.364;2023-05-17T09:34:49;8.57;;;4.30;;
173;SDS011;75;48.784;9.364;2023-05-17T09:37:15;9.00;;;4.80;;
173;SDS011;75;48.784;9.364;2023-05-17T09:39:42;9.27;;;4.50;;
173;SDS011;75;48.784;9.364;2023-05-17T09:42:09;13.70;;;4.70;;
173;SDS011;75;48.784;9.364;2023-05-17T09:44:44;9.10;;;4.70;;
173;SDS011;75;48.784;9.364;2023-05-17T09:47:19;9.17;;;4.30;;
173;SDS011;75;48.784;9.364;2023-05-17T09:49:45;11.67;;;5.37;;
173;SDS011;75;48.784;9.364;2023-05-17T09:52:15;8.17;;;4.30;;
173;SDS011;75;48.784;9.364;2023-05-17T09:54:41;9.93;;;4.70;;
173;SDS011;75;48.784;9.364;2023-05-17T09:57:07;8.13;;;4.70;;
173;SDS011;75;48.784;9.364;2023-05-17T09:59:34;10.47;;;4.50;;
173;SDS011;75;48.784;9.364;2023-05-17T10:02:01;9.17;;;5.00;;
173;SDS011;75;48.784;9.364;2023-05-17T10:04:27;11.70;;;4.60;;
173;SDS011;75;48.784;9.364;2023-05-17T10:06:55;10.47;;;5.90;;
173;SDS011;75;48.784;9.364;2023-05-17T10:09:24;14.70;;;5.13;;
173;SDS011;75;48.784;9.364;2023-05-17T10:11:51;11.00;;;5.40;;
173;SDS011;75;48.784;9.364;2023-05-17T10:14:18;10.53;;;4.90;;
173;SDS011;75;48.784;9.364;2023-05-17T10:16:46;10.53;;;4.83;;
173;SDS011;75;48.784;9.364;2023-05-17T10:19:13;11.00;;;5.23;;
173;SDS011;75;48.784;9.364;2023-05-17T10:21:40;10.77;;;4.80;;
173;SDS011;75;48.784;9.364;2023-05-17T10:24:09;9.47;;;4.00;;
173;SDS011;75;48.784;9.364;2023-05-17T10:26:35;8.10;;;4.30;;
173;SDS011;75;48.784;9.364;2023-05-17T10:29:02;11.03;;;4.83;;
173;SDS011;75;48.784;9.364;2023-05-17T10:31:29;10.67;;;4.43;;
173;SDS011;75;48.784;9.364;2023-05-17T10:33:57;7.33;;;4.60;;
173;SDS011;75;48.784;9.364;2023-05-17T10:36:23;9.27;;;4.63;;
173;SDS011;75;48.784;9.364;2023-05-17T10:38:50;10.43;;;4.93;;
173;SDS011;75;48.784;9.364;2023-05-17T10:41:16;12.40;;;5.03;;
173;SDS011;75;48.784;9.364;2023-05-17T10:43:43;7.57;;;4.40;;
173;SDS011;75;48.784;9.364;2023-05-17T10:46:16;10.90;;;5.07;;
173;SDS011;75;48.784;9.364;2023-05-17T10:48:46;10.97;;;4.63;;
173;SDS011;75;48.784;9.364;2023-05-17T10:51:13;11.43;;;5.40;;
173;SDS011;75;48.784;9.364;2023-05-17T10:56:25;9.43;;;4.97;;
173;SDS011;75;48.784;9.364;2023-05-17T10:59:12;9.50;;;4.60;;
173;SDS011;75;48.784;9.364;2023-05-17T11:01:49;11.00;;;5.20;;
173;SDS011;75;48.784;9.364;2023-05-17T11:04:19;8.33;;;4.93;;
173;SDS011;75;48.784;9.364;2023-05-17T11:06:46;9.67;;;4.80;;
173;SDS011;75;48.784;9.364;2023-05-17T11:09:15;11.77;;;5.43;;
173;SDS011;75;48.784;9.364;2023-05-17T11:14:27;7.63;;;4.60;;
173;SDS011;75;48.784;9.364;2023-05-17T11:17:11;9.50;;;4.60;;
173;SDS011;75;48.784;9.364;2023-05-17T11:19:38;7.77;;;4.60;;
173;SDS011;75;48.784;9.364;2023-05-17T11:22:09;11.40;;;5.00;;
173;SDS011;75;48.784;9.364;2023-05-17T11:24:36;8.43;;;4.73;;
173;SDS011;75;48.784;9.364;2023-05-17T11:27:04;11.60;;;4.80;;
173;SDS011;75;48.784;9.364;2023-05-17T11:29:30;9.40;;;4.77;;
173;SDS011;75;48.784;9.364;2023-05-17T11:31:56;10.53;;;4.80;;
173;SDS011;75;48.784;9.364;2023-05-17T11:34:22;10.33;;;5.17;;
173;SDS011;75;48.784;9.364;2023-05-17T11:36:52;6.67;;;4.00;;
173;SDS011;75;48.784;9.364;2023-05-17T11:39:19;11.40;;;5.47;;
173;SDS011;75;48.784;9.364;2023-05-17T11:41:46;11.23;;;4.93;;
173;SDS011;75;48.784;9.364;2023-05-17T11:44:13;14.53;;;5.60;;
173;SDS011;75;48.784;9.364;2023-05-17T11:46:39;9.47;;;4.97;;
173;SDS011;75;48.784;9.364;2023-05-17T11:49:06;9.57;;;5.07;;
173;SDS011;75;48.784;9.364;2023-05-17T11:51:32;14.00;;;4.90;;
173;SDS011;75;48.784;9.364;2023-05-17T11:53:58;8.63;;;4.57;;
173;SDS011;75;48.784;9.364;2023-05-17T11:56:28;8.70;;;4.67;;
173;SDS011;75;48.784;9.364;2023-05-17T11:58:58;9.17;;;4.30;;
173;SDS011;75;48.784;9.364;2023-05-17T12:01:24;9.87;;;5.03;;
173;SDS011;75;48.784;9.364;2023-05-17T12:03:56;13.40;;;6.33;;
173;SDS011;75;48.784;9.364;2023-05-17T12:06:25;10.50;;;5.50;;
173;SDS011;75;48.784;9.364;2023-05-17T12:08:52;13.73;;;5.87;;
173;SDS011;75;48.784;9.364;2023-05-17T12:11:18;12.83;;;5.13;;
173;SDS011;75;48.784;9.364;2023-05-17T12:13:45;8.43;;;4.70;;
173;SDS011;75;48.784;9.364;2023-05-17T12:16:13;8.80;;;4.23;;
173;SDS011;75;48.784;9.364;2023-05-17T12:18:43;10.53;;;5.63;;
173;SDS011;75;48.784;9.364;2023-05-17T12:21:11;8.30;;;4.10;;
173;SDS011;75;48.784;9.364;2023-05-17T12:23:41;7.13;;;4.07;;
173;SDS011;75;48.784;9.364;2023-05-17T12:26:11;12.27;;;4.53;;
173;SDS011;75;48.784;9.364;2023-05-17T12:28:39;13.00;;;4.70;;
173;SDS011;75;48.784;9.364;2023-05-17T12:31:06;9.33;;;4.80;;
173;SDS011;75;48.784;9.364;2023-05-17T12:33:37;8.27;;;4.23;;
173;SDS011;75;48.784;9.364;2023-05-17T12:36:05;8.20;;;4.10;;
173;SDS011;75;48.784;9.364;2023-05-17T12:38:32;8.33;;;4.27;;
173;SDS011;75;48.784;9.364;2023-05-17T12:40:59;10.10;;;4.87;;
173;SDS011;75;48.784;9.364;2023-05-17T12:43:26;10.50;;;5.00;;
173;SDS011;75;48.784;9.364;2023-05-17T12:45:53;8.23;;;4.63;;
173;SDS011;75;48.784;9.364;2023-05-17T12:48:23;7.77;;;4.50;;
173;SDS011;75;48.784;9.364;2023-05-17T12:50:50;8.33;;;4.43;;
173;SDS011;75;48.784;9.364;2023-05-17T12:53:19;7.30;;;4.50;;
173;SDS011;75;48.784;9.364;2023-05-17T12:55:44;12.30;;;5.33;;
173;SDS011;75;48.784;9.364;2023-05-17T12:58:12;12.80;;;6.40;;
173;SDS011;75;48.784;9.364;2023-05-17T13:00:38;13.30;;;5.67;;
173;SDS011;75;48.784;9.364;2023-05-17T13:03:08;10.40;;;5.33;;
173;SDS011;75;48.784;9.364;2023-05-17T13:05:34;11.97;;;5.47;;
173;SDS011;75;48.784;9.364;2023-05-17T13:08:19;14.93;;;5.60;;
173;SDS011;75;48.784;9.364;2023-05-17T13:10:45;12.57;;;5.17;;
173;SDS011;75;48.784;9.364;2023-05-17T13:13:16;8.80;;;4.40;;
173;SDS011;75;48.784;9.364;2023-05-17T13:15:44;12.27;;;5.30;;
173;SDS011;75;48.784;9.364;2023-05-17T13:18:11;10.70;;;5.30;;
173;SDS011;75;48.784;9.364;2023-05-17T13:20:39;11.10;;;5.50;;
173;SDS011;75;48.784;9.364;2023-05-17T13:23:05;15.03;;;5.63;;
173;SDS011;75;48.784;9.364;2023-05-17T13:25:31;7.93;;;4.70;;
173;SDS011;75;48.784;9.364;2023-05-17T13:27:57;9.37;;;5.37;;
173;SDS011;75;48.784;9.364;2023-05-17T13:30:23;8.70;;;5.07;;
173;SDS011;75;48.784;9.364;2023-05-17T13:32:49;8.60;;;4.90;;
173;SDS011;75;48.784;9.364;2023-05-17T13:35:15;12.53;;;5.07;;
173;SDS011;75;48.784;9.364;2023-05-17T13:37:41;10.73;;;4.80;;
173;SDS011;75;48.784;9.364;2023-05-17T13:40:07;12.10;;;5.00;;
173;SDS011;75;48.784;9.364;2023-05-17T13:42:33;12.20;;;5.40;;
173;SDS011;75;48.784;9.364;2023-05-17T13:45:00;10.60;;;4.77;;
173;SDS011;75;48.784;9.364;2023-05-17T13:47:26;8.70;;;4.80;;
173;SDS011;75;48.784;9.364;2023-05-17T13:49:56;8.87;;;4.60;;
173;SDS011;75;48.784;9.364;2023-05-17T13:52:22;9.80;;;5.13;;
173;SDS011;75;48.784;9.364;2023-05-17T13:54:49;11.07;;;5.10;;
173;SDS011;75;48.784;9.364;2023-05-17T13:57:15;9.50;;;4.87;;
173;SDS011;75;48.784;9.364;2023-05-17T13:59:41;8.70;;;4.97;;
173;SDS011;75;48.784;9.364;2023-05-17T14:02:07;14.90;;;5.77;;
173;SDS011;75;48.784;9.364;2023-05-17T14:04:34;11.60;;;5.40;;
173;SDS011;75;48.784;9.364;2023-05-17T14:07:00;10.43;;;5.33;;
173;SDS011;75;48.784;9.364;2023-05-17T14:09:27;8.93;;;4.83;;
173;SDS011;75;48.784;9.364;2023-05-17T14:11:58;10.60;;;5.20;;
173;SDS011;75;48.784;9.364;2023-05-17T14:14:24;9.87;;;5.43;;
173;SDS011;75;48.784;9.364;2023-05-17T14:16:52;8.43;;;4.90;;
173;SDS011;75;48.784;9.364;2023-05-17T14:19:18;11.47;;;5.47;;
173;SDS011;75;48.784;9.364;2023-05-17T14:21:44;8.97;;;5.10;;
173;SDS011;75;48.784;9.364;2023-05-17T14:24:11;8.53;;;4.40;;
173;SDS011;75;48.784;9.364;2023-05-17T14:26:37;7.60;;;4.57;;
173;SDS011;75;48.784;9.364;2023-05-17T14:29:03;12.90;;;4.73;;
173;SDS011;75;48.784;9.364;2023-05-17T14:31:32;8.20;;;5.10;;
173;SDS011;75;48.784;9.364;2023-05-17T14:33:58;9.47;;;4.90;;
173;SDS011;75;48.784;9.364;2023-05-17T14:36:26;11.20;;;4.93;;
173;SDS011;75;48.784;9.364;2023-05-17T14:38:52;8.67;;;4.70;;
173;SDS011;75;48.784;9.364;2023-05-17T14:41:18;8.00;;;4.97;;
173;SDS011;75;48.784;9.364;2023-05-17T14:43:45;8.23;;;5.00;;
173;SDS011;75;48.784;9.364;2023-05-17T14:46:11;9.40;;;4.60;;
173;SDS011;75;48.784;9.364;2023-05-17T14:48:38;9.93;;;5.13;;
173;SDS011;75;48.784;9.364;2023-05-17T14:51:04;8.93;;;4.63;;
173;SDS011;75;48.784;9.364;2023-05-17T14:53:30;10.73;;;4.90;;
173;SDS011;75;48.784;9.364;2023-05-17T14:55:56;11.10;;;5.20;;
173;SDS011;75;48.784;9.364;2023-05-17T14:58:26;9.77;;;5.40;;
173;SDS011;75;48.784;9.364;2023-05-17T15:00:52;9.57;;;5.07;;
173;SDS011;75;48.784;9.364;2023-05-17T15:03:21;9.77;;;5.10;;
173;SDS011;75;48.784;9.364;2023-05-17T15:05:54;8.20;;;4.70;;
173;SDS011;75;48.784;9.364;2023-05-17T15:08:20;10.40;;;5.33;;
173;SDS011;75;48.784;9.364;2023-05-17T15:10:48;12.00;;;5.73;;
173;SDS011;75;48.784;9.364;2023-05-17T15:13:14;9.20;;;4.97;;
173;SDS011;75;48.784;9.364;2023-05-17T15:15:40;10.70;;;5.50;;
173;SDS011;75;48.784;9.364;2023-05-17T15:18:06;11.37;;;5.93;;
173;SDS011;75;48.784;9.364;2023-05-17T15:20:32;14.03;;;5.87;;
173;SDS011;75;48.784;9.364;2023-05-17T15:22:58;11.23;;;5.23;;
173;SDS011;75;48.784;9.364;2023-05-17T15:25:23;10.80;;;5.20;;
173;SDS011;75;48.784;9.364;2023-05-17T15:27:49;11.40;;;5.43;;
173;SDS011;75;48.784;9.364;2023-05-17T15:30:15;8.93;;;5.23;;
173;SDS011;75;48.784;9.364;2023-05-17T15:32:42;10.03;;;5.20;;
173;SDS011;75;48.784;9.364;2023-05-17T15:35:08;11.77;;;5.33;;
173;SDS011;75;48.784;9.364;2023-05-17T15:37:34;8.80;;;5.03;;
173;SDS011;75;48.784;9.364;2023-05-17T15:40:05;9.43;;;5.10;;
173;SDS011;75;48.784;9.364;2023-05-17T15:42:32;8.73;;;5.33;;
173;SDS011;75;48.784;9.364;2023-05-17T15:44:58;9.43;;;4.80;;
173;SDS011;75;48.784;9.364;2023-05-17T15:47:23;11.27;;;5.13;;
173;SDS011;75;48.784;9.364;2023-05-17T15:49:50;9.53;;;5.00;;
173;SDS011;75;48.784;9.364;2023-05-17T15:52:16;9.73;;;5.33;;
173;SDS011;75;48.784;9.364;2023-05-17T15:54:42;9.27;;;5.13;;
173;SDS011;75;48.784;9.364;2023-05-17T15:57:08;10.70;;;5.23;;
173;SDS011;75;48.784;9.364;2023-05-17T15:59:34;9.17;;;4.87;;
173;SDS011;75;48.784;9.364;2023-05-17T16:02:00;10.70;;;5.30;;
173;SDS011;75;48.784;9.364;2023-05-17T16:04:26;8.90;;;4.90;;